Time;durP1;ratioP1;P1;durP2;ratioP2;P2;SDS_P1;SDS_P2;PMS_P1;PMS_P2;Temp;Humidity;BMP_temperature;BMP_pressure;BME280_temperature;BME280_humidity;BME280_pressure;Samples;Min_cycle;Max_cycle;Signal;HPM_P1;HPM_P2
2022/04/18 00:02:07;;;;;;;0.80;0.80;;;;;;;-142.91;100.00;56616.03;5015447;28;20309;-72
2022/04/18 00:04:34;;;;;;;0.80;0.80;;;;;;;-142.91;100.00;56616.03;5015521;28;20273;-74
2022/04/18 00:07:04;;;;;;;1.35;1.35;;;;;;;-142.91;100.00;56616.03;5015854;28;20254;-71
2022/04/18 00:09:33;;;;;;;0.80;0.80;;;;;;;-142.91;100.00;56616.03;5015504;28;20234;-70
2022/04/18 00:12:00;;;;;;;1.08;1.08;;;;;;;-142.91;100.00;56616.03;5015222;28;20207;-70
2022/04/18 00:14:27;;;;;;;1.17;1.17;;;;;;;-142.91;100.00;56616.03;5015421;28;20232;-73
2022/04/18 00:16:54;;;;;;;1.08;1.08;;;;;;;-142.91;100.00;56616.03;5014971;28;20227;-71
2022/04/18 00:19:22;;;;;;;1.02;1.02;;;;;;;-142.91;100.00;56616.03;5015552;28;20231;-71
2022/04/18 00:21:49;;;;;;;1.45;0.93;;;;;;;-142.91;100.00;56616.03;5015458;28;20247;-71
2022/04/18 00:24:17;;;;;;;1.52;1.45;;;;;;;-142.91;100.00;56616.03;5013901;28;20815;-72
2022/04/18 00:26:44;;;;;;;1.30;1.20;;;;;;;-142.91;100.00;56616.03;5016180;28;20587;-74
2022/04/18 00:29:11;;;;;;;3.05;1.40;;;;;;;-142.91;100.00;56616.03;5015717;28;20273;-72
2022/04/18 00:31:38;;;;;;;1.40;1.30;;;;;;;-142.91;100.00;56616.03;5016250;28;20207;-71
2022/04/18 00:34:05;;;;;;;3.33;1.53;;;;;;;-142.91;100.00;56616.03;5013514;28;20209;-70
2022/04/18 00:36:34;;;;;;;1.00;1.00;;;;;;;-142.91;100.00;56616.03;5014129;28;20239;-71
2022/04/18 00:39:00;;;;;;;0.82;0.82;;;;;;;-142.91;100.00;56616.03;5015016;28;20224;-70
2022/04/18 00:41:27;;;;;;;1.37;1.37;;;;;;;-142.91;100.00;56616.03;5015564;28;20264;-70
2022/04/18 00:43:54;;;;;;;2.17;0.80;;;;;;;-142.91;100.00;56616.03;5014570;28;20687;-71
2022/04/18 00:46:21;;;;;;;0.93;0.83;;;;;;;-142.91;100.00;56616.03;5015590;28;20207;-72
2022/04/18 00:48:49;;;;;;;1.08;1.08;;;;;;;-142.91;100.00;56616.03;5015919;28;20238;-70
2022/04/18 00:51:17;;;;;;;0.80;0.80;;;;;;;-142.91;100.00;56616.03;5015084;28;20195;-70
2022/04/18 00:53:45;;;;;;;0.70;0.70;;;;;;;-142.91;100.00;56616.03;5014065;28;20227;-70
2022/04/18 00:56:16;;;;;;;0.80;0.80;;;;;;;-142.91;100.00;56616.03;5013622;28;20293;-73
2022/04/18 00:58:43;;;;;;;5.75;3.47;;;;;;;-142.91;100.00;56616.03;4996239;28;20238;-70
2022/04/18 01:01:10;;;;;;;2.42;2.22;;;;;;;-142.91;100.00;56616.03;5013827;28;20207;-70
2022/04/18 01:03:37;;;;;;;1.05;1.05;;;;;;;-142.91;100.00;56616.03;5014279;28;20293;-70
2022/04/18 01:06:05;;;;;;;1.02;1.02;;;;;;;-142.91;100.00;56616.03;5013948;28;20241;-71
2022/04/18 01:08:34;;;;;;;1.07;1.00;;;;;;;-142.91;100.00;56616.03;5015603;28;20231;-71
2022/04/18 01:11:05;;;;;;;0.90;0.90;;;;;;;-142.91;100.00;56616.03;5015401;28;20204;-70
2022/04/18 01:13:39;;;;;;;0.90;0.90;;;;;;;-142.91;100.00;56616.03;5015142;28;20206;-71
2022/04/18 01:16:06;;;;;;;0.90;0.90;;;;;;;-142.91;100.00;56616.03;5015093;28;20260;-71
2022/04/18 01:18:32;;;;;;;0.93;0.93;;;;;;;-142.91;100.00;56616.03;5015191;28;20267;-70
2022/04/18 01:21:01;;;;;;;1.90;1.40;;;;;;;-142.91;100.00;56616.03;5014805;28;20209;-72
2022/04/18 01:23:27;;;;;;;0.90;0.90;;;;;;;-142.91;100.00;56616.03;5015455;28;20699;-73
2022/04/18 01:31:22;;;;;;;1.02;1.02;;;;;;;-142.91;100.00;56616.03;5015211;28;20207;-71
2022/04/18 01:33:49;;;;;;;2.30;1.52;;;;;;;-142.91;100.00;56616.03;5015206;28;20286;-70
2022/04/18 01:36:18;;;;;;;1.20;1.20;;;;;;;-142.91;100.00;56616.03;5015156;28;20252;-69
2022/04/18 01:38:45;;;;;;;1.10;1.10;;;;;;;-142.91;100.00;56616.03;5015646;28;20289;-70
2022/04/18 01:41:12;;;;;;;5.18;1.40;;;;;;;-142.91;100.00;56616.03;5014524;28;20211;-72
2022/04/18 01:43:39;;;;;;;1.30;1.30;;;;;;;-142.91;100.00;56616.03;5015465;28;20211;-73
2022/04/18 01:46:06;;;;;;;1.10;1.10;;;;;;;-142.91;100.00;56616.03;5015129;28;20207;-70
2022/04/18 01:48:33;;;;;;;1.20;1.10;;;;;;;-142.91;100.00;56616.03;5019132;28;20303;-70
2022/04/18 01:50:59;;;;;;;1.08;1.08;;;;;;;-142.91;100.00;56616.03;5017481;28;20285;-70
2022/04/18 01:53:30;;;;;;;1.20;1.20;;;;;;;-142.91;100.00;56616.03;5015377;28;20642;-71
2022/04/18 01:55:57;;;;;;;5.57;1.65;;;;;;;-142.91;100.00;56616.03;5014454;28;20621;-71
2022/04/18 01:58:24;;;;;;;1.33;1.30;;;;;;;-142.91;100.00;56616.03;5015390;28;20354;-71
2022/04/18 02:00:50;;;;;;;1.13;1.13;;;;;;;-142.91;100.00;56616.03;5014794;28;20227;-70
2022/04/18 02:03:17;;;;;;;1.20;1.20;;;;;;;-142.91;100.00;56616.03;5015421;28;20203;-70
2022/04/18 02:05:46;;;;;;;1.10;1.10;;;;;;;-142.91;100.00;56616.03;5015220;28;20254;-70
2022/04/18 02:08:13;;;;;;;1.10;1.10;;;;;;;-142.91;100.00;56616.03;5015246;28;20242;-70
2022/04/18 02:10:42;;;;;;;0.88;0.88;;;;;;;-142.91;100.00;56616.03;5015013;28;20270;-71
2022/04/18 02:13:09;;;;;;;1.02;1.02;;;;;;;-142.91;100.00;56616.03;5017165;28;20212;-71
2022/04/18 02:15:35;;;;;;;1.40;1.30;;;;;;;-142.91;100.00;56616.03;5019427;28;21130;-72
2022/04/18 02:18:02;;;;;;;1.33;1.33;;;;;;;-142.91;100.00;56616.03;5016452;28;20239;-70
2022/04/18 02:20:29;;;;;;;1.63;1.52;;;;;;;-142.91;100.00;56616.03;5016314;28;20204;-71
2022/04/18 02:22:56;;;;;;;1.63;1.52;;;;;;;-142.91;100.00;56616.03;5018904;28;20893;-70
2022/04/18 02:25:23;;;;;;;1.05;1.05;;;;;;;-142.91;100.00;56616.03;5014891;28;20208;-70
2022/04/18 02:27:52;;;;;;;2.15;1.20;;;;;;;-142.91;100.00;56616.03;5015215;28;20223;-71
2022/04/18 02:30:19;;;;;;;1.00;1.00;;;;;;;-142.91;100.00;56616.03;5015126;28;20204;-73
2022/04/18 02:32:48;;;;;;;1.63;0.90;;;;;;;-142.91;100.00;56616.03;5016940;28;20204;-69
2022/04/18 02:35:16;;;;;;;1.00;1.00;;;;;;;-142.91;100.00;56616.03;5019408;28;20285;-72
2022/04/18 02:37:42;;;;;;;1.05;1.00;;;;;;;-142.91;100.00;56616.03;5020353;28;20196;-72
2022/04/18 02:40:10;;;;;;;0.60;0.60;;;;;;;-142.91;100.00;56616.03;5030553;28;20204;-69
2022/04/18 02:42:37;;;;;;;0.90;0.90;;;;;;;-142.91;100.00;56616.03;5035072;28;20262;-70
2022/04/18 02:45:06;;;;;;;0.97;0.90;;;;;;;-142.91;100.00;56616.03;5031182;28;20651;-70
2022/04/18 02:47:33;;;;;;;0.90;0.90;;;;;;;-142.91;100.00;56616.03;5034256;28;20196;-72
2022/04/18 02:50:00;;;;;;;1.10;0.90;;;;;;;-142.91;100.00;56616.03;5034591;28;20313;-71
2022/04/18 02:52:26;;;;;;;0.63;0.63;;;;;;;-142.91;100.00;56616.03;5038032;28;20199;-70
2022/04/18 02:54:53;;;;;;;0.90;0.90;;;;;;;-142.91;100.00;56616.03;5033090;28;20253;-70
2022/04/18 02:57:20;;;;;;;1.20;1.20;;;;;;;-142.91;100.00;56616.03;5037843;28;20208;-70
2022/04/18 02:59:46;;;;;;;6.60;4.30;;;;;;;-142.91;100.00;56616.03;5035220;28;20262;-70
2022/04/18 03:02:14;;;;;;;1.02;1.02;;;;;;;-142.91;100.00;56616.03;5033913;28;20234;-72
2022/04/18 03:04:41;;;;;;;0.90;0.90;;;;;;;-142.91;100.00;56616.03;5031660;28;20208;-70
2022/04/18 03:07:08;;;;;;;0.93;0.82;;;;;;;-142.91;100.00;56616.03;5032023;28;20200;-69
2022/04/18 03:09:35;;;;;;;1.20;0.90;;;;;;;-142.91;100.00;56616.03;5024973;28;20765;-71
2022/04/18 03:12:03;;;;;;;0.70;0.70;;;;;;;-142.91;100.00;56616.03;5025872;28;20257;-71
2022/04/18 03:14:30;;;;;;;0.60;0.60;;;;;;;-142.91;100.00;56616.03;5030200;28;20232;-70
2022/04/18 03:16:57;;;;;;;0.70;0.70;;;;;;;-142.91;100.00;56616.03;5029425;28;20218;-71
2022/04/18 03:19:25;;;;;;;1.77;0.70;;;;;;;-142.91;100.00;56616.03;5028096;28;20227;-71
2022/04/18 03:21:52;;;;;;;0.70;0.70;;;;;;;-142.91;100.00;56616.03;5022391;28;20202;-73
2022/04/18 03:24:19;;;;;;;0.60;0.60;;;;;;;-142.91;100.00;56616.03;5017053;28;20239;-71
2022/04/18 03:26:46;;;;;;;0.60;0.60;;;;;;;-142.91;100.00;56616.03;5017095;28;20567;-73
2022/04/18 03:29:13;;;;;;;0.70;0.70;;;;;;;-142.91;100.00;56616.03;5016765;28;20204;-72
2022/04/18 03:31:39;;;;;;;0.80;0.60;;;;;;;-142.91;100.00;56616.03;5017097;28;20632;-70
2022/04/18 03:34:06;;;;;;;1.02;1.02;;;;;;;-142.91;100.00;56616.03;5017522;28;20231;-70
2022/04/18 03:42:03;;;;;;;0.68;0.68;;;;;;;-142.91;100.00;56616.03;5017291;28;20781;-73
2022/04/18 03:44:29;;;;;;;0.68;0.68;;;;;;;-142.91;100.00;56616.03;5016914;28;20208;-71
2022/04/18 03:46:57;;;;;;;0.70;0.70;;;;;;;-142.91;100.00;56616.03;5017791;28;20203;-71
2022/04/18 03:49:24;;;;;;;1.00;1.00;;;;;;;-142.91;100.00;56616.03;5017527;28;20675;-73
2022/04/18 03:51:52;;;;;;;0.90;0.90;;;;;;;-142.91;100.00;56616.03;5017776;28;20278;-70
2022/04/18 03:54:19;;;;;;;0.77;0.77;;;;;;;-142.91;100.00;56616.03;5017035;28;20212;-70
2022/04/18 03:56:46;;;;;;;1.00;1.00;;;;;;;-142.91;100.00;56616.03;5017231;28;21581;-71
2022/04/18 03:59:12;;;;;;;1.33;1.10;;;;;;;-142.91;100.00;56616.03;5017204;28;20647;-71
2022/04/18 04:01:40;;;;;;;1.00;1.00;;;;;;;-142.91;100.00;56616.03;5016836;28;20204;-70
2022/04/18 04:04:06;;;;;;;1.20;1.20;;;;;;;-142.91;100.00;56616.03;5017644;28;20212;-71
2022/04/18 04:06:35;;;;;;;1.57;1.47;;;;;;;-142.91;100.00;56616.03;5016921;28;20196;-73
2022/04/18 04:09:06;;;;;;;1.60;1.40;;;;;;;-142.91;100.00;56616.03;5017078;28;20758;-71
2022/04/18 04:11:33;;;;;;;1.63;1.53;;;;;;;-142.91;100.00;56616.03;5017110;28;20215;-73
2022/04/18 04:14:00;;;;;;;1.73;1.63;;;;;;;-142.91;100.00;56616.03;5017746;28;20262;-71
2022/04/18 04:16:27;;;;;;;2.00;1.75;;;;;;;-142.91;100.00;56616.03;4999585;28;20215;-70
2022/04/18 04:18:56;;;;;;;1.63;1.53;;;;;;;-142.91;100.00;56616.03;5017299;28;20322;-71
2022/04/18 04:21:25;;;;;;;1.50;1.50;;;;;;;-142.91;100.00;56616.03;5016858;28;20192;-74
2022/04/18 04:23:51;;;;;;;1.42;1.35;;;;;;;-142.91;100.00;56616.03;5015984;28;20684;-74
2022/04/18 04:26:19;;;;;;;1.90;1.80;;;;;;;-142.91;100.00;56616.03;5015280;28;20223;-74
2022/04/18 04:28:46;;;;;;;1.90;1.60;;;;;;;-142.91;100.00;56616.03;5016611;28;20698;-74
2022/04/18 04:31:13;;;;;;;1.90;1.80;;;;;;;-142.91;100.00;56616.03;5014709;28;20214;-71
2022/04/18 04:33:39;;;;;;;1.73;1.63;;;;;;;-142.91;100.00;56616.03;5016600;28;20208;-73
2022/04/18 04:36:06;;;;;;;1.90;1.80;;;;;;;-142.91;100.00;56616.03;5015430;28;20293;-71
2022/04/18 04:38:33;;;;;;;2.30;2.17;;;;;;;-142.91;100.00;56616.03;5016007;28;21309;-72
2022/04/18 04:41:00;;;;;;;2.23;2.13;;;;;;;-142.91;100.00;56616.03;5016056;28;20203;-74
2022/04/18 04:43:28;;;;;;;2.63;2.53;;;;;;;-142.91;100.00;56616.03;5016343;28;20208;-72
2022/04/18 04:45:56;;;;;;;3.17;2.53;;;;;;;-142.91;100.00;56616.03;5015873;28;20214;-74
2022/04/18 04:48:23;;;;;;;3.33;3.13;;;;;;;-142.91;100.00;56616.03;5015973;28;20202;-73
2022/04/18 04:50:51;;;;;;;5.72;3.35;;;;;;;-142.91;100.00;56616.03;5014875;28;20204;-71
2022/04/18 04:53:18;;;;;;;3.08;2.88;;;;;;;-142.91;100.00;56616.03;5013935;28;20254;-71
2022/04/18 04:55:45;;;;;;;2.97;2.75;;;;;;;-142.91;100.00;56616.03;5012847;28;20745;-70
2022/04/18 04:58:12;;;;;;;3.22;2.85;;;;;;;-142.91;100.00;56616.03;5013678;28;20629;-70
2022/04/18 05:00:42;;;;;;;3.42;3.13;;;;;;;-142.91;100.00;56616.03;5014134;28;20340;-70
2022/04/18 05:03:09;;;;;;;2.72;2.53;;;;;;;-142.91;100.00;56616.03;5013468;28;20211;-72
2022/04/18 05:05:36;;;;;;;4.90;3.93;;;;;;;-142.91;100.00;56616.03;5014075;28;20285;-71
2022/04/18 05:08:03;;;;;;;2.92;2.72;;;;;;;-142.91;100.00;56616.03;5015234;28;20203;-70
2022/04/18 05:10:30;;;;;;;3.10;2.88;;;;;;;-142.91;100.00;56616.03;5015728;28;20345;-73
2022/04/18 05:12:57;;;;;;;3.03;2.75;;;;;;;-142.91;100.00;56616.03;5015518;28;20204;-73
2022/04/18 05:15:24;;;;;;;2.83;2.63;;;;;;;-142.91;100.00;56616.03;5015431;28;20239;-73
2022/04/18 05:17:52;;;;;;;2.67;2.55;;;;;;;-142.91;100.00;56616.03;5015511;28;20220;-74
2022/04/18 05:20:19;;;;;;;3.08;2.88;;;;;;;-142.91;100.00;56616.03;5014557;28;20285;-72
2022/04/18 05:22:46;;;;;;;3.95;2.60;;;;;;;-142.91;100.00;56616.03;5015343;28;20270;-70
2022/04/18 05:25:13;;;;;;;3.60;3.37;;;;;;;-142.91;100.00;56616.03;5015065;28;20301;-72
2022/04/18 05:27:39;;;;;;;3.67;3.13;;;;;;;-142.91;100.00;56616.03;5015338;28;20208;-70
2022/04/18 05:30:08;;;;;;;2.92;2.72;;;;;;;-142.91;100.00;56616.03;5015163;28;20205;-70
2022/04/18 05:32:35;;;;;;;2.90;2.70;;;;;;;-142.91;100.00;56616.03;5015076;28;20207;-71
2022/04/18 05:35:04;;;;;;;2.17;2.08;;;;;;;-142.91;100.00;56616.03;5014956;28;20207;-72
2022/04/18 05:37:30;;;;;;;3.57;2.80;;;;;;;-142.91;100.00;56616.03;5015733;28;21039;-72
2022/04/18 05:39:57;;;;;;;4.03;2.67;;;;;;;-142.91;100.00;56616.03;5015012;28;20599;-73
2022/04/18 05:42:24;;;;;;;3.07;2.77;;;;;;;-142.91;100.00;56616.03;5015163;28;20219;-74
2022/04/18 05:44:51;;;;;;;3.40;3.07;;;;;;;-142.91;100.00;56616.03;5014641;28;20291;-71
2022/04/18 05:47:18;;;;;;;3.97;2.93;;;;;;;-142.91;100.00;56616.03;5015443;28;20309;-72
2022/04/18 05:49:44;;;;;;;3.03;2.77;;;;;;;-142.91;100.00;56616.03;5014806;28;20653;-72
2022/04/18 05:52:14;;;;;;;3.40;3.20;;;;;;;-142.91;100.00;56616.03;5015534;28;20203;-72
2022/04/18 05:54:41;;;;;;;3.75;3.45;;;;;;;-142.91;100.00;56616.03;5015004;28;20199;-72
2022/04/18 05:57:07;;;;;;;3.17;2.97;;;;;;;-142.91;100.00;56616.03;5015395;28;20228;-75
2022/04/18 05:59:34;;;;;;;3.67;3.00;;;;;;;-142.91;100.00;56616.03;5014367;28;20884;-70
2022/04/18 06:02:01;;;;;;;3.85;2.60;;;;;;;-142.91;100.00;56616.03;5014916;28;20269;-71
2022/04/18 06:04:28;;;;;;;2.95;2.75;;;;;;;-142.91;100.00;56616.03;5015436;28;20199;-73
2022/04/18 06:06:54;;;;;;;3.10;2.90;;;;;;;-142.91;100.00;56616.03;5017308;28;20662;-72
2022/04/18 06:09:23;;;;;;;3.45;2.75;;;;;;;-142.91;100.00;56616.03;5019058;28;20212;-72
2022/04/18 06:11:49;;;;;;;2.83;2.63;;;;;;;-142.91;100.00;56616.03;5018610;28;20212;-71
2022/04/18 06:14:16;;;;;;;2.90;2.60;;;;;;;-142.91;100.00;56616.03;5018435;28;20796;-71
2022/04/18 06:16:43;;;;;;;3.35;3.05;;;;;;;-142.91;100.00;56616.03;5018718;28;20203;-72
2022/04/18 06:19:12;;;;;;;3.00;2.80;;;;;;;-142.91;100.00;56616.03;5018491;28;20348;-74
2022/04/18 06:21:39;;;;;;;2.92;2.45;;;;;;;-142.91;100.00;56616.03;5018130;28;20289;-72
2022/04/18 06:24:05;;;;;;;3.67;2.60;;;;;;;-142.91;100.00;56616.03;5018993;28;20249;-72
2022/04/18 06:26:33;;;;;;;2.75;2.55;;;;;;;-142.91;100.00;56616.03;5017801;28;20270;-72
2022/04/18 06:29:00;;;;;;;1.88;1.77;;;;;;;-142.91;100.00;56616.03;5018385;28;20682;-70
2022/04/18 06:31:27;;;;;;;3.83;2.15;;;;;;;-142.91;100.00;56616.03;5018825;28;20258;-71
2022/04/18 06:33:54;;;;;;;2.15;2.05;;;;;;;-142.91;100.00;56616.03;5018635;28;20222;-71
2022/04/18 06:36:20;;;;;;;2.28;2.17;;;;;;;-142.91;100.00;56616.03;5017749;28;20289;-71
2022/04/18 06:38:48;;;;;;;2.50;2.30;;;;;;;-142.91;100.00;56616.03;5018894;28;20227;-72
2022/04/18 06:41:14;;;;;;;2.80;2.08;;;;;;;-142.91;100.00;56616.03;5017409;28;20235;-71
2022/04/18 06:43:43;;;;;;;2.53;2.33;;;;;;;-142.91;100.00;56616.03;5018281;28;20212;-72
2022/04/18 06:46:09;;;;;;;1.45;1.40;;;;;;;-142.91;100.00;56616.03;5018230;28;20271;-73
2022/04/18 06:48:36;;;;;;;2.03;1.92;;;;;;;-142.91;100.00;56616.03;5018296;28;20334;-72
2022/04/18 06:51:03;;;;;;;17.23;4.03;;;;;;;-142.91;100.00;56616.03;5018092;28;20231;-74
2022/04/18 06:53:29;;;;;;;3.97;2.30;;;;;;;-142.91;100.00;56616.03;5018097;28;21728;-72
2022/04/18 06:58:40;;;;;;;2.33;2.13;;;;;;;-142.91;100.00;56616.03;5018447;28;20943;-75
2022/04/18 07:01:08;;;;;;;13.68;9.13;;;;;;;-142.91;100.00;56616.03;5017976;28;20274;-72
2022/04/18 07:03:35;;;;;;;9.25;7.28;;;;;;;-142.91;100.00;56616.03;5017798;28;20720;-71
2022/04/18 07:06:02;;;;;;;9.88;8.02;;;;;;;-142.91;100.00;56616.03;5017369;28;20212;-71
2022/04/18 07:08:29;;;;;;;5.70;4.60;;;;;;;-142.91;100.00;56616.03;5017587;28;20235;-72
2022/04/18 07:10:56;;;;;;;1.67;1.58;;;;;;;-142.91;100.00;56616.03;5018026;28;20328;-71
2022/04/18 07:13:23;;;;;;;2.00;1.90;;;;;;;-142.91;100.00;56616.03;5017876;28;20269;-72
2022/04/18 07:15:50;;;;;;;2.00;1.90;;;;;;;-142.91;100.00;56616.03;5017563;28;20228;-72
2022/04/18 07:18:18;;;;;;;2.25;2.15;;;;;;;-142.91;100.00;56616.03;5017322;28;20220;-73
2022/04/18 07:20:45;;;;;;;1.92;1.83;;;;;;;-142.91;100.00;56616.03;5016931;28;20243;-71
2022/04/18 07:23:12;;;;;;;2.00;1.90;;;;;;;-142.91;100.00;56616.03;5017750;28;20266;-70
2022/04/18 07:25:39;;;;;;;1.85;1.75;;;;;;;-142.91;100.00;56616.03;5017588;28;20578;-72
2022/04/18 07:28:06;;;;;;;1.67;1.58;;;;;;;-142.91;100.00;56616.03;5017563;28;20663;-72
2022/04/18 07:30:34;;;;;;;1.88;1.77;;;;;;;-142.91;100.00;56616.03;5016987;28;20231;-73
2022/04/18 07:33:01;;;;;;;2.15;1.95;;;;;;;-142.91;100.00;56616.03;5017078;28;20868;-73
2022/04/18 07:35:29;;;;;;;2.15;2.05;;;;;;;-142.91;100.00;56616.03;5017291;28;20289;-74
2022/04/18 07:40:43;;;;;;;2.05;1.80;;;;;;;-142.91;100.00;56616.03;4984248;28;20275;-72
2022/04/18 07:43:10;;;;;;;1.92;1.83;;;;;;;-142.91;100.00;56616.03;5016892;28;20687;-71
2022/04/18 07:45:38;;;;;;;2.00;1.77;;;;;;;-142.91;100.00;56616.03;5016797;28;20203;-72
2022/04/18 07:48:06;;;;;;;2.25;2.05;;;;;;;-142.91;100.00;56616.03;5016975;28;20200;-71
2022/04/18 07:53:18;;;;;;;1.60;1.50;;;;;;;-142.91;100.00;56616.03;5017197;28;20579;-70
2022/04/18 07:55:45;;;;;;;1.80;1.70;;;;;;;-142.91;100.00;56616.03;5016409;28;20199;-70
2022/04/18 07:58:12;;;;;;;2.13;2.03;;;;;;;-142.91;100.00;56616.03;5016548;28;20199;-71
2022/04/18 08:00:39;;;;;;;2.08;1.98;;;;;;;-142.91;100.00;56616.03;5014528;28;20267;-73
2022/04/18 08:03:05;;;;;;;2.03;1.92;;;;;;;-142.91;100.00;56616.03;5015050;28;20199;-71
2022/04/18 08:05:34;;;;;;;1.85;1.75;;;;;;;-142.91;100.00;56616.03;5015165;28;20270;-73
2022/04/18 08:08:00;;;;;;;1.92;1.83;;;;;;;-142.91;100.00;56616.03;5014432;28;20281;-72
2022/04/18 08:10:28;;;;;;;4.63;1.60;;;;;;;-142.91;100.00;56616.03;5014332;28;20262;-71
2022/04/18 08:12:56;;;;;;;1.60;1.50;;;;;;;-142.91;100.00;56616.03;5014737;28;20203;-71
2022/04/18 08:15:23;;;;;;;1.60;1.50;;;;;;;-142.91;100.00;56616.03;5016364;28;20320;-72
2022/04/18 08:17:50;;;;;;;2.03;1.90;;;;;;;-142.91;100.00;56616.03;5015869;28;20357;-72
2022/04/18 08:20:17;;;;;;;1.85;1.75;;;;;;;-142.91;100.00;56616.03;5016055;28;20251;-74
2022/04/18 08:22:45;;;;;;;3.83;1.42;;;;;;;-142.91;100.00;56616.03;5015900;28;20200;-73
2022/04/18 08:25:13;;;;;;;1.92;1.83;;;;;;;-142.91;100.00;56616.03;5015960;28;20203;-71
2022/04/18 08:27:40;;;;;;;3.03;1.73;;;;;;;-142.91;100.00;56616.03;5015640;28;20200;-74
2022/04/18 08:30:07;;;;;;;1.80;1.70;;;;;;;-142.91;100.00;56616.03;5015244;28;20278;-73
2022/04/18 08:32:36;;;;;;;2.83;1.90;;;;;;;-142.91;100.00;56616.03;5015427;28;20235;-73
2022/04/18 08:35:03;;;;;;;1.83;1.73;;;;;;;-142.91;100.00;56616.03;5015545;28;20966;-71
2022/04/18 08:37:30;;;;;;;2.25;1.75;;;;;;;-142.91;100.00;56616.03;5015234;28;20756;-71
2022/04/18 08:39:58;;;;;;;1.55;1.45;;;;;;;-142.91;100.00;56616.03;5015911;28;20273;-71
2022/04/18 08:42:26;;;;;;;1.17;1.08;;;;;;;-142.91;100.00;56616.03;5015522;28;21272;-71
2022/04/18 08:44:55;;;;;;;1.55;1.45;;;;;;;-142.91;100.00;56616.03;5015525;28;20200;-71
2022/04/18 08:52:51;;;;;;;1.42;1.33;;;;;;;-142.91;100.00;56616.03;5015813;28;20237;-71
2022/04/18 08:55:21;;;;;;;1.67;1.58;;;;;;;-142.91;100.00;56616.03;5014974;28;20254;-72
2022/04/18 08:57:47;;;;;;;1.50;1.40;;;;;;;-142.91;100.00;56616.03;5015917;28;20245;-71
2022/04/18 09:00:14;;;;;;;1.17;1.17;;;;;;;-142.91;100.00;56616.03;5015015;28;20301;-74
2022/04/18 09:02:41;;;;;;;2.38;1.65;;;;;;;-142.91;100.00;56616.03;5015415;28;20254;-72
2022/04/18 09:05:10;;;;;;;1.65;1.55;;;;;;;-142.91;100.00;56616.03;5014755;28;20203;-72
2022/04/18 09:07:37;;;;;;;1.92;1.83;;;;;;;-142.91;100.00;56616.03;5014814;28;20200;-72
2022/04/18 09:10:05;;;;;;;1.55;1.45;;;;;;;-142.91;100.00;56616.03;5016108;28;20199;-70
2022/04/18 09:12:33;;;;;;;1.45;1.20;;;;;;;-142.91;100.00;56616.03;5016185;28;20220;-70
2022/04/18 09:15:00;;;;;;;0.98;0.98;;;;;;;-142.91;100.00;56616.03;5011347;28;20235;-71
2022/04/18 09:17:30;;;;;;;1.45;1.35;;;;;;;-142.91;100.00;56616.03;5014978;28;20312;-72
2022/04/18 09:20:09;;;;;;;1.35;1.25;;;;;;;-142.91;100.00;56616.03;5014486;28;20200;-71
2022/04/18 09:22:43;;;;;;;1.30;1.23;;;;;;;-142.91;100.00;56616.03;5015168;28;20290;-71
2022/04/18 09:25:14;;;;;;;1.65;1.55;;;;;;;-142.91;100.00;56616.03;5014804;28;20290;-71
2022/04/18 09:27:53;;;;;;;1.52;1.30;;;;;;;-142.91;100.00;56616.03;5015272;28;20204;-73
2022/04/18 09:30:19;;;;;;;1.20;1.13;;;;;;;-142.91;100.00;56616.03;5015198;28;20687;-72
2022/04/18 09:32:57;;;;;;;1.45;1.35;;;;;;;-142.91;100.00;56616.03;5014794;28;20274;-71
2022/04/18 09:35:26;;;;;;;1.98;1.52;;;;;;;-142.91;100.00;56616.03;5015021;28;20210;-71
2022/04/18 09:37:54;;;;;;;1.80;1.70;;;;;;;-142.91;100.00;56616.03;5015013;28;20207;-71
2022/04/18 09:40:23;;;;;;;0.82;0.82;;;;;;;-142.91;100.00;56616.03;5014908;28;20761;-71
2022/04/18 09:42:54;;;;;;;0.90;0.90;;;;;;;-142.91;100.00;56616.03;5018224;28;20370;-72
2022/04/18 09:45:21;;;;;;;2.08;1.90;;;;;;;-142.91;100.00;56616.03;5018819;28;20231;-73
2022/04/18 09:47:55;;;;;;;1.70;1.60;;;;;;;-142.91;100.00;56616.03;5019157;28;20212;-71
2022/04/18 09:53:08;;;;;;;1.20;1.10;;;;;;;-142.91;100.00;56616.03;5018456;28;20272;-75
2022/04/18 09:55:35;;;;;;;1.30;1.30;;;;;;;-142.91;100.00;56616.03;5018757;28;20204;-72
2022/04/18 09:58:05;;;;;;;1.52;1.42;;;;;;;-142.91;100.00;56616.03;5018680;28;20310;-73
2022/04/18 10:00:31;;;;;;;3.50;1.20;;;;;;;-142.91;100.00;56616.03;5019157;28;20235;-72
2022/04/18 10:03:00;;;;;;;1.60;1.50;;;;;;;-142.91;100.00;56616.03;5018074;28;20207;-72
2022/04/18 10:05:27;;;;;;;1.30;1.20;;;;;;;-142.91;100.00;56616.03;5017429;28;20234;-72
2022/04/18 10:07:55;;;;;;;1.40;1.40;;;;;;;-142.91;100.00;56616.03;5014840;28;20208;-72
2022/04/18 10:10:22;;;;;;;1.50;1.10;;;;;;;-142.91;100.00;56616.03;5019516;28;20200;-72
2022/04/18 10:12:50;;;;;;;1.38;1.27;;;;;;;-142.91;100.00;56616.03;5010014;28;20205;-73
2022/04/18 10:15:18;;;;;;;1.40;1.40;;;;;;;-142.91;100.00;56616.03;5008794;28;20228;-71
2022/04/18 10:17:46;;;;;;;1.05;1.05;;;;;;;-142.91;100.00;56616.03;5007795;28;20485;-72
2022/04/18 10:20:27;;;;;;;1.45;1.45;;;;;;;-142.91;100.00;56616.03;5015576;28;20221;-73
2022/04/18 10:23:16;;;;;;;1.05;1.05;;;;;;;-142.91;100.00;56616.03;5029152;28;20695;-73
2022/04/18 10:26:19;;;;;;;1.50;1.40;;;;;;;-142.91;100.00;56616.03;5019100;28;20205;-72
2022/04/18 10:28:50;;;;;;;1.60;1.50;;;;;;;-142.91;100.00;56616.03;5008945;28;20196;-72
2022/04/18 10:31:27;;;;;;;1.42;1.33;;;;;;;-142.91;100.00;56616.03;5023438;28;20230;-72
2022/04/18 10:33:56;;;;;;;1.80;1.70;;;;;;;-142.91;100.00;56616.03;5028316;28;20223;-73
2022/04/18 10:36:27;;;;;;;1.58;1.48;;;;;;;-142.91;100.00;56616.03;5011189;28;20246;-72
2022/04/18 10:38:56;;;;;;;1.60;1.50;;;;;;;-142.91;100.00;56616.03;5009882;28;20200;-74
2022/04/18 10:41:41;;;;;;;1.45;1.35;;;;;;;-142.91;100.00;56616.03;5027128;28;20475;-73
2022/04/18 10:44:09;;;;;;;1.42;1.42;;;;;;;-142.91;100.00;56616.03;5032337;28;20258;-73
2022/04/18 10:46:39;;;;;;;1.50;1.40;;;;;;;-142.91;100.00;56616.03;5014606;28;20242;-73
2022/04/18 10:49:14;;;;;;;1.33;1.23;;;;;;;-142.91;100.00;56616.03;5013352;28;20197;-76
2022/04/18 10:51:42;;;;;;;2.28;2.17;;;;;;;-142.91;100.00;56616.03;5031853;28;20212;-72
2022/04/18 10:54:15;;;;;;;2.80;1.55;;;;;;;-142.91;100.00;56616.03;5032122;28;20196;-72
2022/04/18 10:56:53;;;;;;;1.50;1.40;;;;;;;-142.91;100.00;56616.03;5013692;28;20201;-72
2022/04/18 10:59:22;;;;;;;2.00;1.90;;;;;;;-142.91;100.00;56616.03;5013045;28;20675;-73
2022/04/18 11:01:51;;;;;;;1.33;1.33;;;;;;;-142.91;100.00;56616.03;5012909;28;20282;-71
2022/04/18 11:04:18;;;;;;;6.50;3.65;;;;;;;-142.91;100.00;56616.03;5013280;28;20236;-72
2022/04/18 11:06:47;;;;;;;1.30;1.30;;;;;;;-142.91;100.00;56616.03;5027947;28;20200;-72
2022/04/18 11:09:16;;;;;;;1.27;1.17;;;;;;;-142.91;100.00;56616.03;5032699;28;20261;-74
2022/04/18 11:11:48;;;;;;;1.20;1.10;;;;;;;-142.91;100.00;56616.03;5018558;28;20200;-74
2022/04/18 11:14:18;;;;;;;0.95;0.95;;;;;;;-142.91;100.00;56616.03;5012552;28;20331;-72
2022/04/18 11:16:51;;;;;;;1.23;1.00;;;;;;;-142.91;100.00;56616.03;5013234;28;20208;-72
2022/04/18 11:19:20;;;;;;;1.27;1.13;;;;;;;-142.91;100.00;56616.03;5012516;28;20220;-73
2022/04/18 11:22:26;;;;;;;1.65;1.55;;;;;;;-142.91;100.00;56616.03;5012798;28;20232;-73
2022/04/18 11:25:02;;;;;;;1.25;1.20;;;;;;;-142.91;100.00;56616.03;5012851;28;20292;-74
2022/04/18 11:27:39;;;;;;;1.42;1.33;;;;;;;-142.91;100.00;56616.03;5012881;28;20231;-73
2022/04/18 11:30:11;;;;;;;0.90;0.90;;;;;;;-142.91;100.00;56616.03;5012880;28;20246;-74
2022/04/18 11:32:41;;;;;;;1.25;1.15;;;;;;;-142.91;100.00;56616.03;5012582;28;20250;-74
2022/04/18 11:35:10;;;;;;;1.05;1.05;;;;;;;-142.91;100.00;56616.03;5012454;28;20199;-74
2022/04/18 11:37:40;;;;;;;0.80;0.80;;;;;;;-142.91;100.00;56616.03;5012399;28;20193;-72
2022/04/18 11:40:08;;;;;;;1.10;1.10;;;;;;;-142.91;100.00;56616.03;5012390;28;20203;-72
2022/04/18 11:42:35;;;;;;;1.50;1.40;;;;;;;-142.91;100.00;56616.03;5012448;28;20640;-74